createdAt,value
2023-01-17T00:08:47.753Z,94288.81
2023-01-17T00:19:12.223Z,94286.34
2023-01-17T00:29:21.809Z,94275.67
2023-01-17T00:39:28.537Z,94261.09
2023-01-17T00:50:21.745Z,94272.42
2023-01-17T01:01:08.066Z,94298.23
2023-01-17T01:11:51.181Z,94276.89
2023-01-17T01:23:15.568Z,94285.55
2023-01-17T01:34:07.510Z,94295.60
2023-01-17T01:44:51.402Z,94285.66
2023-01-17T01:55:06.799Z,94280.59
2023-01-17T02:05:43.885Z,94284.59
2023-01-17T02:16:23.156Z,94268.41
2023-01-17T02:26:52.684Z,94249.35
2023-01-17T02:37:09.279Z,94236.73
2023-01-17T02:47:46.994Z,94245.30
2023-01-17T02:58:42.139Z,94242.69
2023-01-17T03:08:57.166Z,94252.42
2023-01-17T03:19:16.416Z,94265.31
2023-01-17T03:29:40.814Z,94271.72
2023-01-17T03:40:10.115Z,94280.44
2023-01-17T03:50:14.364Z,94278.73
2023-01-17T04:00:40.222Z,94287.36
2023-01-17T04:11:07.317Z,94288.11
2023-01-17T04:21:24.383Z,94291.52
2023-01-17T04:31:31.226Z,94298.19
2023-01-17T04:41:45.624Z,94302.27
2023-01-17T04:51:52.783Z,94309.39
2023-01-17T05:02:20.161Z,94306.06
2023-01-17T05:12:41.268Z,94303.09
2023-01-17T05:22:47.669Z,94300.90
2023-01-17T05:33:02.819Z,94291.80
2023-01-17T05:43:12.821Z,94264.56
2023-01-17T05:53:20.599Z,94285.63
2023-01-17T06:03:27.201Z,94287.52
2023-01-17T06:13:38.952Z,94286.44
2023-01-17T06:23:58.476Z,94288.53
2023-01-17T06:34:05.933Z,94289.17
2023-01-17T06:44:13.140Z,94289.27
2023-01-17T06:54:20.470Z,94287.05
2023-01-17T07:04:30.378Z,94291.36
2023-01-17T07:14:45.017Z,94294.41
2023-01-17T07:25:14.752Z,94307.69
2023-01-17T07:35:42.285Z,94322.45
2023-01-17T07:46:01.979Z,94334.27
2023-01-17T07:56:29.467Z,94340.59
2023-01-17T08:07:25.960Z,94349.50
2023-01-17T08:18:01.367Z,94364.31
2023-01-17T08:28:14.188Z,94382.46
2023-01-17T08:39:08.726Z,94392.36
2023-01-17T08:49:53.465Z,94406.81
2023-01-17T09:00:28.847Z,94420.11
2023-01-17T09:11:09.818Z,94432.55
2023-01-17T09:21:37.861Z,94426.19
2023-01-17T09:31:58.231Z,94434.08
2023-01-17T09:42:05.128Z,94398.17
2023-01-17T09:52:42.286Z,94392.66
2023-01-17T10:03:46.637Z,94402.55
2023-01-17T10:14:21.986Z,94408.67
2023-01-17T10:25:09.149Z,94397.98
2023-01-17T10:35:48.437Z,94405.75
2023-01-17T10:46:41.751Z,94420.23
2023-01-17T10:57:19.359Z,94420.42
2023-01-17T11:08:10.090Z,94417.45
2023-01-17T11:19:15.257Z,94401.29
2023-01-17T11:30:37.075Z,94419.09
2023-01-17T11:41:20.998Z,94419.91
2023-01-17T11:51:56.831Z,94418.75
2023-01-17T12:03:16.386Z,94408.63
2023-01-17T12:14:01.867Z,94415.89
2023-01-17T12:24:17.169Z,94411.30
2023-01-17T12:34:47.554Z,94409.05
2023-01-17T12:45:20.550Z,94402.43
2023-01-17T12:55:41.450Z,94401.11
2023-01-17T13:05:53.791Z,94404.34
2023-01-17T13:16:03.700Z,94415.86
2023-01-17T13:26:21.065Z,94438.55
2023-01-17T13:36:42.730Z,94449.04
2023-01-17T13:47:26.622Z,94467.44
2023-01-17T13:57:42.378Z,94487.62
2023-01-17T14:08:13.466Z,94504.41
2023-01-17T14:18:37.296Z,94498.59
2023-01-17T14:28:56.261Z,94507.52
2023-01-17T14:39:00.582Z,94513.06
2023-01-17T14:49:25.721Z,94536.84
2023-01-17T14:59:29.785Z,94554.33
2023-01-17T15:09:37.436Z,94577.17
2023-01-17T15:19:44.382Z,94580.76
2023-01-17T15:29:53.167Z,94579.52
2023-01-17T15:40:18.322Z,94597.96
2023-01-17T15:50:32.340Z,94597.10
2023-01-17T16:00:45.521Z,94583.45
2023-01-17T16:10:55.401Z,94548.52
2023-01-17T16:21:02.408Z,94527.95
2023-01-17T16:31:08.552Z,94534.79
2023-01-17T16:41:13.492Z,94539.63
2023-01-17T16:51:17.649Z,94533.62
2023-01-17T17:01:23.348Z,94522.95
2023-01-17T17:11:27.745Z,94525.33
2023-01-17T17:21:36.326Z,94523.71
2023-01-17T17:31:46.603Z,94499.09
2023-01-17T17:41:53.987Z,94493.46
2023-01-17T17:52:21.582Z,94501.00
2023-01-17T18:02:27.344Z,94500.98
2023-01-17T18:12:32.382Z,94498.47
2023-01-17T18:22:37.653Z,94498.28
2023-01-17T18:32:52.326Z,94485.81
2023-01-17T18:42:59.356Z,94504.35
2023-01-17T18:53:07.145Z,94499.38
2023-01-17T19:03:19.866Z,94482.39
2023-01-17T19:13:28.589Z,94475.04
2023-01-17T19:23:37.764Z,94476.09
2023-01-17T19:33:45.477Z,94480.65
2023-01-17T19:44:05.823Z,94483.73
2023-01-17T19:54:11.562Z,94461.52
2023-01-17T20:04:19.557Z,94448.26
2023-01-17T20:14:28.015Z,94450.30
2023-01-17T20:24:34.007Z,94453.13
2023-01-17T20:34:39.031Z,94454.08
2023-01-17T20:44:44.208Z,94444.03
2023-01-17T20:54:52.644Z,94429.69
2023-01-17T21:04:59.088Z,94422.98
2023-01-17T21:15:03.128Z,94407.25
2023-01-17T21:25:08.076Z,94393.95
2023-01-17T21:35:12.527Z,94375.77
2023-01-17T21:45:16.557Z,94371.89
2023-01-17T21:55:39.436Z,94370.55
2023-01-17T22:05:43.437Z,94352.20
2023-01-17T22:15:58.992Z,94324.04
2023-01-17T22:26:07.655Z,94318.21
2023-01-17T22:36:16.438Z,94301.01
2023-01-17T22:46:26.293Z,94292.06
2023-01-17T22:56:32.833Z,94274.69
2023-01-17T23:06:39.487Z,94243.49
2023-01-17T23:17:08.621Z,94219.58
2023-01-17T23:27:50.543Z,94199.59
2023-01-17T23:38:13.409Z,94174.36
2023-01-17T23:48:17.521Z,94155.69
2023-01-17T23:58:40.612Z,94132.56
